sensor_id;sensor_type;location;lat;lon;timestamp;P1;durP1;ratioP1;P2;durP2;ratioP2
69837;SDS011;57135;51.992;4.476;2023-12-04T01:16:46;11.83;;;11.38;;
69837;SDS011;57135;51.992;4.476;2023-12-04T01:19:12;11.88;;;11.39;;
69837;SDS011;57135;51.992;4.476;2023-12-04T02:09:08;11.79;;;11.10;;
69837;SDS011;57135;51.992;4.476;2023-12-04T02:11:37;10.50;;;10.03;;
69837;SDS011;57135;51.992;4.476;2023-12-04T02:14:04;11.36;;;10.77;;
69837;SDS011;57135;51.992;4.476;2023-12-04T06:14:00;8.85;;;8.46;;
69837;SDS011;57135;51.992;4.476;2023-12-04T06:16:25;8.69;;;8.26;;
69837;SDS011;57135;51.992;4.476;2023-12-04T06:18:51;9.33;;;8.95;;
69837;SDS011;57135;51.992;4.476;2023-12-04T06:21:17;9.30;;;8.76;;
69837;SDS011;57135;51.992;4.476;2023-12-04T06:23:43;8.72;;;8.22;;
69837;SDS011;57135;51.992;4.476;2023-12-04T06:26:10;8.93;;;8.40;;
69837;SDS011;57135;51.992;4.476;2023-12-04T06:28:37;9.65;;;9.00;;
69837;SDS011;57135;51.992;4.476;2023-12-04T06:31:06;8.85;;;8.41;;
69837;SDS011;57135;51.992;4.476;2023-12-04T06:33:35;8.74;;;8.47;;
69837;SDS011;57135;51.992;4.476;2023-12-04T06:36:01;8.82;;;8.44;;
69837;SDS011;57135;51.992;4.476;2023-12-04T06:38:27;8.83;;;8.49;;
69837;SDS011;57135;51.992;4.476;2023-12-04T06:40:58;8.62;;;8.24;;
69837;SDS011;57135;51.992;4.476;2023-12-04T06:43:23;8.76;;;8.36;;
69837;SDS011;57135;51.992;4.476;2023-12-04T06:45:49;9.12;;;8.76;;
69837;SDS011;57135;51.992;4.476;2023-12-04T06:48:15;8.86;;;8.56;;
69837;SDS011;57135;51.992;4.476;2023-12-04T06:50:40;9.20;;;8.88;;
69837;SDS011;57135;51.992;4.476;2023-12-04T06:53:06;9.33;;;8.92;;
69837;SDS011;57135;51.992;4.476;2023-12-04T06:55:31;8.96;;;8.65;;
69837;SDS011;57135;51.992;4.476;2023-12-04T07:01:31;8.89;;;8.58;;
69837;SDS011;57135;51.992;4.476;2023-12-04T07:06:46;9.42;;;8.95;;
69837;SDS011;57135;51.992;4.476;2023-12-04T07:09:12;8.55;;;8.12;;
69837;SDS011;57135;51.992;4.476;2023-12-04T07:11:37;8.22;;;7.91;;
69837;SDS011;57135;51.992;4.476;2023-12-04T07:28:12;8.04;;;7.76;;
69837;SDS011;57135;51.992;4.476;2023-12-04T07:31:23;8.14;;;7.91;;
69837;SDS011;57135;51.992;4.476;2023-12-04T08:00:29;7.80;;;7.63;;
69837;SDS011;57135;51.992;4.476;2023-12-04T09:28:39;7.78;;;7.66;;
69837;SDS011;57135;51.992;4.476;2023-12-04T09:36:13;7.41;;;7.24;;
69837;SDS011;57135;51.992;4.476;2023-12-04T09:38:44;7.74;;;7.59;;
69837;SDS011;57135;51.992;4.476;2023-12-04T09:43:41;7.28;;;7.20;;
69837;SDS011;57135;51.992;4.476;2023-12-04T09:46:09;7.26;;;7.21;;
69837;SDS011;57135;51.992;4.476;2023-12-04T09:48:36;7.24;;;7.20;;
69837;SDS011;57135;51.992;4.476;2023-12-04T09:53:42;7.47;;;7.41;;
69837;SDS011;57135;51.992;4.476;2023-12-04T09:56:08;7.55;;;7.47;;
69837;SDS011;57135;51.992;4.476;2023-12-04T09:58:34;7.23;;;7.12;;
69837;SDS011;57135;51.992;4.476;2023-12-04T10:01:22;7.93;;;7.76;;
69837;SDS011;57135;51.992;4.476;2023-12-04T10:03:48;8.01;;;7.91;;
69837;SDS011;57135;51.992;4.476;2023-12-04T10:06:19;7.61;;;7.53;;
69837;SDS011;57135;51.992;4.476;2023-12-04T10:08:45;7.59;;;7.49;;
69837;SDS011;57135;51.992;4.476;2023-12-04T10:11:12;7.39;;;7.29;;
69837;SDS011;57135;51.992;4.476;2023-12-04T10:13:40;7.31;;;7.14;;
69837;SDS011;57135;51.992;4.476;2023-12-04T11:37:48;6.96;;;6.78;;
69837;SDS011;57135;51.992;4.476;2023-12-04T11:40:15;6.51;;;6.42;;
69837;SDS011;57135;51.992;4.476;2023-12-04T12:06:23;6.82;;;6.78;;
69837;SDS011;57135;51.992;4.476;2023-12-04T12:08:49;6.57;;;6.54;;
69837;SDS011;57135;51.992;4.476;2023-12-04T13:20:15;7.64;;;7.58;;
69837;SDS011;57135;51.992;4.476;2023-12-04T14:01:32;9.06;;;8.96;;
69837;SDS011;57135;51.992;4.476;2023-12-04T14:03:58;9.50;;;9.42;;
69837;SDS011;57135;51.992;4.476;2023-12-04T14:06:30;9.29;;;9.20;;
69837;SDS011;57135;51.992;4.476;2023-12-04T14:08:56;9.72;;;9.62;;
69837;SDS011;57135;51.992;4.476;2023-12-04T14:11:24;9.52;;;9.38;;
69837;SDS011;57135;51.992;4.476;2023-12-04T14:13:49;9.92;;;9.80;;
69837;SDS011;57135;51.992;4.476;2023-12-04T14:52:30;9.00;;;8.88;;
69837;SDS011;57135;51.992;4.476;2023-12-04T14:54:58;9.86;;;9.68;;
69837;SDS011;57135;51.992;4.476;2023-12-04T14:57:59;9.66;;;9.56;;
69837;SDS011;57135;51.992;4.476;2023-12-04T15:00:43;9.84;;;9.78;;
69837;SDS011;57135;51.992;4.476;2023-12-04T15:03:37;10.13;;;10.01;;
69837;SDS011;57135;51.992;4.476;2023-12-04T15:06:08;9.76;;;9.68;;
69837;SDS011;57135;51.992;4.476;2023-12-04T15:08:37;9.72;;;9.66;;
69837;SDS011;57135;51.992;4.476;2023-12-04T15:11:21;9.55;;;9.47;;
69837;SDS011;57135;51.992;4.476;2023-12-04T15:13:49;10.05;;;9.84;;
69837;SDS011;57135;51.992;4.476;2023-12-04T15:16:25;9.64;;;9.46;;
69837;SDS011;57135;51.992;4.476;2023-12-04T15:18:59;10.04;;;9.88;;
69837;SDS011;57135;51.992;4.476;2023-12-04T15:21:30;9.33;;;9.21;;
69837;SDS011;57135;51.992;4.476;2023-12-04T15:24:01;10.05;;;9.84;;
69837;SDS011;57135;51.992;4.476;2023-12-04T15:26:27;10.32;;;10.22;;
69837;SDS011;57135;51.992;4.476;2023-12-04T15:28:53;10.01;;;9.90;;
69837;SDS011;57135;51.992;4.476;2023-12-04T15:31:21;10.27;;;10.17;;
69837;SDS011;57135;51.992;4.476;2023-12-04T15:33:50;9.65;;;9.56;;
69837;SDS011;57135;51.992;4.476;2023-12-04T15:36:18;10.55;;;10.37;;
69837;SDS011;57135;51.992;4.476;2023-12-04T15:38:47;11.24;;;11.10;;
69837;SDS011;57135;51.992;4.476;2023-12-04T15:41:12;12.08;;;11.96;;
69837;SDS011;57135;51.992;4.476;2023-12-04T15:43:38;11.48;;;11.39;;
69837;SDS011;57135;51.992;4.476;2023-12-04T15:46:03;10.80;;;10.78;;
69837;SDS011;57135;51.992;4.476;2023-12-04T15:48:31;11.68;;;11.63;;
69837;SDS011;57135;51.992;4.476;2023-12-04T15:50:57;12.66;;;12.59;;
69837;SDS011;57135;51.992;4.476;2023-12-04T15:53:22;12.24;;;12.15;;
69837;SDS011;57135;51.992;4.476;2023-12-04T15:55:48;11.10;;;11.01;;
69837;SDS011;57135;51.992;4.476;2023-12-04T15:58:13;11.27;;;11.24;;
69837;SDS011;57135;51.992;4.476;2023-12-04T16:12:20;12.15;;;12.07;;
69837;SDS011;57135;51.992;4.476;2023-12-04T16:14:49;12.54;;;12.44;;
69837;SDS011;57135;51.992;4.476;2023-12-04T16:17:17;12.36;;;12.32;;
69837;SDS011;57135;51.992;4.476;2023-12-04T16:19:45;12.17;;;12.03;;
69837;SDS011;57135;51.992;4.476;2023-12-04T16:34:09;12.46;;;12.38;;
69837;SDS011;57135;51.992;4.476;2023-12-04T16:36:34;14.18;;;14.06;;
69837;SDS011;57135;51.992;4.476;2023-12-04T16:39:00;15.47;;;15.33;;
69837;SDS011;57135;51.992;4.476;2023-12-04T16:41:30;14.06;;;13.90;;
69837;SDS011;57135;51.992;4.476;2023-12-04T16:44:08;13.58;;;13.51;;
69837;SDS011;57135;51.992;4.476;2023-12-04T16:47:00;14.10;;;13.90;;
69837;SDS011;57135;51.992;4.476;2023-12-04T16:52:24;14.39;;;14.34;;
69837;SDS011;57135;51.992;4.476;2023-12-04T16:54:49;15.46;;;15.42;;
69837;SDS011;57135;51.992;4.476;2023-12-04T17:00:29;16.40;;;16.18;;
69837;SDS011;57135;51.992;4.476;2023-12-04T17:02:55;15.82;;;15.74;;
69837;SDS011;57135;51.992;4.476;2023-12-04T17:05:20;16.87;;;16.80;;
69837;SDS011;57135;51.992;4.476;2023-12-04T17:07:46;16.28;;;16.26;;
69837;SDS011;57135;51.992;4.476;2023-12-04T17:10:11;17.56;;;17.47;;
69837;SDS011;57135;51.992;4.476;2023-12-04T17:12:46;18.87;;;18.72;;
69837;SDS011;57135;51.992;4.476;2023-12-04T17:15:17;19.62;;;19.53;;
69837;SDS011;57135;51.992;4.476;2023-12-04T17:17:42;19.61;;;19.46;;
69837;SDS011;57135;51.992;4.476;2023-12-04T17:20:08;20.19;;;20.00;;
69837;SDS011;57135;51.992;4.476;2023-12-04T17:22:34;19.84;;;19.72;;
69837;SDS011;57135;51.992;4.476;2023-12-04T17:25:00;19.69;;;19.62;;
69837;SDS011;57135;51.992;4.476;2023-12-04T17:27:28;19.46;;;19.32;;
69837;SDS011;57135;51.992;4.476;2023-12-04T17:42:57;19.88;;;19.84;;
69837;SDS011;57135;51.992;4.476;2023-12-04T17:45:25;19.56;;;19.51;;
69837;SDS011;57135;51.992;4.476;2023-12-04T17:47:58;19.29;;;19.20;;
69837;SDS011;57135;51.992;4.476;2023-12-04T17:50:47;19.39;;;19.20;;
69837;SDS011;57135;51.992;4.476;2023-12-04T18:06:14;19.98;;;19.85;;
69837;SDS011;57135;51.992;4.476;2023-12-04T18:08:41;22.65;;;22.42;;
69837;SDS011;57135;51.992;4.476;2023-12-04T18:11:07;21.58;;;21.41;;
69837;SDS011;57135;51.992;4.476;2023-12-04T18:13:33;20.18;;;20.05;;
69837;SDS011;57135;51.992;4.476;2023-12-04T18:15:59;21.23;;;21.06;;
69837;SDS011;57135;51.992;4.476;2023-12-04T18:18:24;21.33;;;21.21;;
69837;SDS011;57135;51.992;4.476;2023-12-04T18:20:50;21.21;;;20.98;;
69837;SDS011;57135;51.992;4.476;2023-12-04T19:02:21;23.29;;;23.22;;
69837;SDS011;57135;51.992;4.476;2023-12-04T19:23:00;23.99;;;23.85;;
69837;SDS011;57135;51.992;4.476;2023-12-04T20:14:38;21.15;;;20.93;;
69837;SDS011;57135;51.992;4.476;2023-12-04T20:17:07;20.52;;;20.32;;
69837;SDS011;57135;51.992;4.476;2023-12-04T20:19:35;21.26;;;21.15;;
69837;SDS011;57135;51.992;4.476;2023-12-04T20:34:57;19.86;;;19.82;;
69837;SDS011;57135;51.992;4.476;2023-12-04T21:32:19;17.31;;;17.12;;
69837;SDS011;57135;51.992;4.476;2023-12-04T21:34:44;17.65;;;17.45;;
69837;SDS011;57135;51.992;4.476;2023-12-04T21:37:09;17.84;;;17.70;;
69837;SDS011;57135;51.992;4.476;2023-12-04T22:45:59;16.52;;;16.27;;
